Hauptseite
METAR-TAF:

METAR-TAF

Flughäfen :

Le Mans, Frankreich

Flughafen Le Mans

Breite: 47-56N, Länge: 000-12E, Höhe: 59 m

Beobachtung

Neuester Wetterbericht von vor 31 Minuten, um 14:30 UTC
Wind 10 kt aus West, variierte zwischen Südwest und West/Nordwest
Temperatur 10°C
Luftfeuchtigkeit 57%
Luftdruck 1015 hPa
Sichtweite 10 km oder mehr
Leicht bewölkt in der Höhe von 3900 ft

METAR: LFRM 191430Z AUTO 27010KT 230V300 9999 FEW039 10/02 Q1015 NOSIG

Zeit: 16:01 (15:01 UTC)

Prognose

Neuester Wetterbericht von vor 1 Stunde und 1 Minuten, um 14:00 UTC
Gültige Prognose vom 19 um 15 UTC bis 19 um 24 UTC
Wind 9 kt aus West
Sichtweite 10 km oder mehr
Leicht bewölkt in der Höhe von 3000 ft

TAF: LFRM 191400Z 1915/1924 27009KT 9999 FEW030

Wetterbeobachtungen und Prognosen von mehr als 4000 Flughäfen (METAR und TAF Bericht).

Die verfügbaren Stationen werden durch gelbe und rote Markierungen auf der Karte dargestellt.

Führen Sie die Maus auf sie, um den Namen der Station zu sehen.

Darauf klicken, um die Beobachtung von Wetterbeobachtungen und Prognosen zu sehen.

Um die Karte zu ändern : klicken Sie auf den grünen Tasten mit einem schwarzen Kreuz Zum Vergrößern, auf den grünen Button mit einem Gedankenstrich zu verkleinern, oder auf die grünen Pfeile für benachbarte Karten.


METAR-TAF: